createdAt,value
2023-05-26T00:00:46.000Z,9.73
2023-05-26T00:01:50.000Z,9.7
2023-05-26T00:02:53.000Z,9.66
2023-05-26T00:03:57.000Z,9.62
2023-05-26T00:05:01.000Z,9.59
2023-05-26T00:06:05.000Z,9.57
2023-05-26T00:07:09.000Z,9.57
2023-05-26T00:08:12.000Z,9.57
2023-05-26T00:09:16.000Z,9.55
2023-05-26T00:10:20.000Z,9.52
2023-05-26T00:11:24.000Z,9.52
2023-05-26T00:12:27.000Z,9.51
2023-05-26T00:13:31.000Z,9.51
2023-05-26T00:14:35.000Z,9.48
2023-05-26T00:15:39.000Z,9.47
2023-05-26T00:16:42.000Z,9.47
2023-05-26T00:17:46.000Z,9.45
2023-05-26T00:18:50.000Z,9.44
2023-05-26T00:19:54.000Z,9.44
2023-05-26T00:20:58.000Z,9.41
2023-05-26T00:22:01.000Z,9.41
2023-05-26T00:23:05.000Z,9.37
2023-05-26T00:24:09.000Z,9.36
2023-05-26T00:25:13.000Z,9.34
2023-05-26T00:26:17.000Z,9.34
2023-05-26T00:27:20.000Z,9.34
2023-05-26T00:28:24.000Z,9.34
2023-05-26T00:29:28.000Z,9.36
2023-05-26T00:30:32.000Z,9.34
2023-05-26T00:31:36.000Z,9.32
2023-05-26T00:32:39.000Z,9.3
2023-05-26T00:33:43.000Z,9.27
2023-05-26T00:34:47.000Z,9.24
2023-05-26T00:35:51.000Z,9.24
2023-05-26T00:36:54.000Z,9.23
2023-05-26T00:37:58.000Z,9.22
2023-05-26T00:39:02.000Z,9.15
2023-05-26T00:40:06.000Z,9.15
2023-05-26T00:41:10.000Z,9.15
2023-05-26T00:42:14.000Z,9.16
2023-05-26T00:43:17.000Z,9.15
2023-05-26T00:44:21.000Z,9.12
2023-05-26T00:45:25.000Z,9.14
2023-05-26T00:46:29.000Z,9.12
2023-05-26T00:47:32.000Z,9.09
2023-05-26T00:48:36.000Z,9.09
2023-05-26T00:49:40.000Z,9.09
2023-05-26T00:50:44.000Z,9.08
2023-05-26T00:51:47.000Z,9.06
2023-05-26T00:52:51.000Z,9.03
2023-05-26T00:53:55.000Z,9.01
2023-05-26T00:54:59.000Z,8.99
2023-05-26T00:56:03.000Z,8.96
2023-05-26T00:57:06.000Z,8.95
2023-05-26T00:58:10.000Z,8.93
2023-05-26T00:59:14.000Z,8.95
2023-05-26T01:00:18.000Z,8.9
2023-05-26T01:01:22.000Z,8.9
2023-05-26T01:02:26.000Z,8.9
2023-05-26T01:03:30.000Z,8.9
2023-05-26T01:04:33.000Z,8.89
2023-05-26T01:05:37.000Z,8.89
2023-05-26T01:06:41.000Z,8.88
2023-05-26T01:07:45.000Z,8.85
2023-05-26T01:08:48.000Z,8.86
2023-05-26T01:09:52.000Z,8.83
2023-05-26T01:10:56.000Z,8.8
2023-05-26T01:12:00.000Z,8.8
2023-05-26T01:13:03.000Z,8.75
2023-05-26T01:14:07.000Z,8.74
2023-05-26T01:15:11.000Z,8.71
2023-05-26T01:16:15.000Z,8.68
2023-05-26T01:17:19.000Z,8.67
2023-05-26T01:18:23.000Z,8.67
2023-05-26T01:19:26.000Z,8.7
2023-05-26T01:20:30.000Z,8.63
2023-05-26T01:21:34.000Z,8.65
2023-05-26T01:22:38.000Z,8.63
2023-05-26T01:23:41.000Z,8.68
2023-05-26T01:24:45.000Z,8.7
2023-05-26T01:25:49.000Z,8.74
2023-05-26T01:26:53.000Z,8.77
2023-05-26T01:27:56.000Z,8.81
2023-05-26T01:29:00.000Z,8.83
2023-05-26T01:30:04.000Z,8.88
2023-05-26T01:31:08.000Z,8.92
2023-05-26T01:32:12.000Z,8.9
2023-05-26T01:33:15.000Z,8.96
2023-05-26T01:34:19.000Z,8.98
2023-05-26T01:35:23.000Z,9.01
2023-05-26T01:36:27.000Z,9.03
2023-05-26T01:37:30.000Z,9.04
2023-05-26T01:38:34.000Z,9.04
2023-05-26T01:39:38.000Z,9.04
2023-05-26T01:40:42.000Z,9.06
2023-05-26T01:41:46.000Z,9.06
2023-05-26T01:42:49.000Z,9.03
2023-05-26T01:43:53.000Z,9.01
2023-05-26T01:44:57.000Z,8.99
2023-05-26T01:46:01.000Z,8.96
2023-05-26T01:47:05.000Z,8.9
2023-05-26T01:48:08.000Z,8.88
2023-05-26T01:49:12.000Z,8.86
2023-05-26T01:50:16.000Z,8.85
2023-05-26T01:51:20.000Z,8.8
2023-05-26T01:52:24.000Z,8.72
2023-05-26T01:53:27.000Z,8.72
2023-05-26T01:54:31.000Z,8.71
2023-05-26T01:55:35.000Z,8.67
2023-05-26T01:56:39.000Z,8.62
2023-05-26T01:57:43.000Z,8.6
2023-05-26T01:58:46.000Z,8.57
2023-05-26T01:59:50.000Z,8.59
2023-05-26T02:00:54.000Z,8.57
2023-05-26T02:01:58.000Z,8.56
2023-05-26T02:03:02.000Z,8.52
2023-05-26T02:04:05.000Z,8.49
2023-05-26T02:05:09.000Z,8.49
2023-05-26T02:06:13.000Z,8.46
2023-05-26T02:07:17.000Z,8.44
2023-05-26T02:08:21.000Z,8.41
2023-05-26T02:09:24.000Z,8.38
2023-05-26T02:10:28.000Z,8.37
2023-05-26T02:11:32.000Z,8.34
2023-05-26T02:12:36.000Z,8.31
2023-05-26T02:13:39.000Z,8.31
2023-05-26T02:14:43.000Z,8.31
2023-05-26T02:15:47.000Z,8.29
2023-05-26T02:16:51.000Z,8.26
2023-05-26T02:17:55.000Z,8.23
2023-05-26T02:18:58.000Z,8.23
2023-05-26T02:20:02.000Z,8.24
2023-05-26T02:21:06.000Z,8.21
2023-05-26T02:22:10.000Z,8.2
2023-05-26T02:23:14.000Z,8.21
2023-05-26T02:24:18.000Z,8.2
2023-05-26T02:25:21.000Z,8.19
2023-05-26T02:26:25.000Z,8.17
2023-05-26T02:27:29.000Z,8.19
2023-05-26T02:28:33.000Z,8.2
2023-05-26T02:29:37.000Z,8.17
2023-05-26T02:30:40.000Z,8.17
2023-05-26T02:31:44.000Z,8.17
2023-05-26T02:32:48.000Z,8.16
2023-05-26T02:33:52.000Z,8.17
2023-05-26T02:34:55.000Z,8.2
2023-05-26T02:35:59.000Z,8.2
2023-05-26T02:37:03.000Z,8.19
2023-05-26T02:38:07.000Z,8.19
2023-05-26T02:39:10.000Z,8.19
2023-05-26T02:40:14.000Z,8.17
2023-05-26T02:41:18.000Z,8.17
2023-05-26T02:42:22.000Z,8.16
2023-05-26T02:43:26.000Z,8.16
2023-05-26T02:44:29.000Z,8.16
2023-05-26T02:45:33.000Z,8.16
2023-05-26T02:46:37.000Z,8.17
2023-05-26T02:47:41.000Z,8.14
2023-05-26T02:48:45.000Z,8.14
2023-05-26T02:49:48.000Z,8.13
2023-05-26T02:50:52.000Z,8.13
2023-05-26T02:51:56.000Z,8.17
2023-05-26T02:52:59.000Z,8.23
2023-05-26T02:54:03.000Z,8.19
2023-05-26T02:55:07.000Z,8.16
2023-05-26T02:56:11.000Z,8.16
2023-05-26T02:57:15.000Z,8.16
2023-05-26T02:58:18.000Z,8.14
2023-05-26T02:59:22.000Z,8.12
2023-05-26T03:00:26.000Z,8.1
2023-05-26T03:01:30.000Z,8.1
2023-05-26T03:02:34.000Z,8.1
2023-05-26T03:03:37.000Z,8.12
2023-05-26T03:04:41.000Z,8.1
2023-05-26T03:05:45.000Z,8.12
2023-05-26T03:06:49.000Z,8.12
2023-05-26T03:07:52.000Z,8.09
2023-05-26T03:08:56.000Z,8.1
2023-05-26T03:10:00.000Z,8.1
2023-05-26T03:11:04.000Z,8.13
2023-05-26T03:12:07.000Z,8.12
2023-05-26T03:13:11.000Z,8.12
2023-05-26T03:14:15.000Z,8.12
2023-05-26T03:15:19.000Z,8.1
2023-05-26T03:16:23.000Z,8.1
2023-05-26T03:17:27.000Z,8.1
2023-05-26T03:18:30.000Z,8.09
2023-05-26T03:19:34.000Z,8.1
2023-05-26T03:20:38.000Z,8.1
2023-05-26T03:21:42.000Z,8.12
2023-05-26T03:22:46.000Z,8.14
2023-05-26T03:23:49.000Z,8.16
2023-05-26T03:24:53.000Z,8.16
2023-05-26T03:25:57.000Z,8.17
2023-05-26T03:27:01.000Z,8.2
2023-05-26T03:28:04.000Z,8.21
2023-05-26T03:29:08.000Z,8.21
2023-05-26T03:30:12.000Z,8.23
2023-05-26T03:31:16.000Z,8.26
2023-05-26T03:32:20.000Z,8.31
2023-05-26T03:33:24.000Z,8.35
2023-05-26T03:34:27.000Z,8.39
2023-05-26T03:35:31.000Z,8.46
2023-05-26T03:36:35.000Z,8.49
2023-05-26T03:37:39.000Z,8.53
2023-05-26T03:38:42.000Z,8.57
2023-05-26T03:39:46.000Z,8.65
2023-05-26T03:40:50.000Z,8.67
2023-05-26T03:41:54.000Z,8.72
2023-05-26T03:42:57.000Z,8.78
2023-05-26T03:44:01.000Z,8.86
2023-05-26T03:45:05.000Z,8.92
2023-05-26T03:46:09.000Z,8.99
2023-05-26T03:47:13.000Z,9.09
2023-05-26T03:48:16.000Z,9.16
2023-05-26T03:49:20.000Z,9.26
2023-05-26T03:50:29.000Z,9.34
2023-05-26T03:51:33.000Z,9.45
2023-05-26T03:52:37.000Z,9.54
2023-05-26T03:53:40.000Z,9.65
2023-05-26T03:54:44.000Z,9.72
2023-05-26T03:55:48.000Z,9.81
2023-05-26T03:56:52.000Z,9.9
2023-05-26T03:57:56.000Z,9.96
2023-05-26T03:58:59.000Z,10.01
2023-05-26T04:00:03.000Z,10.05
2023-05-26T04:01:07.000Z,10.1
2023-05-26T04:02:11.000Z,10.48
2023-05-26T04:03:14.000Z,11.04
2023-05-26T04:04:18.000Z,11.59
2023-05-26T04:05:22.000Z,12.13
2023-05-26T04:06:26.000Z,12.55
2023-05-26T04:07:29.000Z,12.9
2023-05-26T04:08:33.000Z,13.01
2023-05-26T04:09:37.000Z,13.09
2023-05-26T04:10:41.000Z,12.96
2023-05-26T04:11:45.000Z,13.06
2023-05-26T04:12:48.000Z,13.19
2023-05-26T04:13:52.000Z,13.38
2023-05-26T04:14:56.000Z,13.64
2023-05-26T04:16:00.000Z,14.09
2023-05-26T04:17:04.000Z,14.56
2023-05-26T04:18:07.000Z,14.99
2023-05-26T04:19:11.000Z,15.04
2023-05-26T04:20:15.000Z,14.96
2023-05-26T04:21:19.000Z,14.59
2023-05-26T04:22:22.000Z,14.11
2023-05-26T04:23:26.000Z,13.75
2023-05-26T04:24:30.000Z,13.36
2023-05-26T04:25:34.000Z,13.08
2023-05-26T04:26:37.000Z,12.62
2023-05-26T04:27:41.000Z,12.25
2023-05-26T04:28:45.000Z,11.64
2023-05-26T04:29:49.000Z,11.36
2023-05-26T04:30:53.000Z,11.11
2023-05-26T04:31:56.000Z,10.94
2023-05-26T04:33:00.000Z,10.8
2023-05-26T04:34:04.000Z,10.68
2023-05-26T04:35:08.000Z,10.72
2023-05-26T04:36:12.000Z,10.65
2023-05-26T04:37:16.000Z,10.7
2023-05-26T04:38:19.000Z,10.68
2023-05-26T04:39:23.000Z,10.75
2023-05-26T04:40:27.000Z,10.86
2023-05-26T04:41:30.000Z,10.93
2023-05-26T04:42:34.000Z,10.93
2023-05-26T04:43:38.000Z,10.95
2023-05-26T04:44:42.000Z,10.93
2023-05-26T04:45:46.000Z,10.93
2023-05-26T04:46:49.000Z,10.97
2023-05-26T04:47:53.000Z,10.91
2023-05-26T04:48:57.000Z,10.8
2023-05-26T04:50:01.000Z,10.78
2023-05-26T04:51:05.000Z,10.83
2023-05-26T04:52:08.000Z,10.82
2023-05-26T04:53:12.000Z,10.8
2023-05-26T04:54:16.000Z,10.83
2023-05-26T04:55:20.000Z,10.97
2023-05-26T04:56:24.000Z,10.98
2023-05-26T04:57:27.000Z,11.04
2023-05-26T04:58:31.000Z,10.86
2023-05-26T04:59:35.000Z,10.91
2023-05-26T05:00:39.000Z,10.97
2023-05-26T05:01:42.000Z,11.04
2023-05-26T05:02:46.000Z,10.98
2023-05-26T05:03:50.000Z,10.95
2023-05-26T05:04:54.000Z,11.04
2023-05-26T05:05:58.000Z,11.03
2023-05-26T05:07:01.000Z,11.03
2023-05-26T05:08:05.000Z,11.09
2023-05-26T05:09:09.000Z,11.11
2023-05-26T05:10:13.000Z,11.15
2023-05-26T05:11:17.000Z,11.2
2023-05-26T05:12:20.000Z,11.18
2023-05-26T05:13:24.000Z,11.23
2023-05-26T05:14:28.000Z,11.16
2023-05-26T05:15:32.000Z,11.11
2023-05-26T05:16:36.000Z,11.04
2023-05-26T05:17:40.000Z,10.95
2023-05-26T05:18:43.000Z,10.97
2023-05-26T05:19:47.000Z,10.94
2023-05-26T05:20:51.000Z,10.93
2023-05-26T05:21:55.000Z,11.0
2023-05-26T05:22:58.000Z,11.11
2023-05-26T05:24:02.000Z,11.16
2023-05-26T05:25:06.000Z,11.18
2023-05-26T05:26:10.000Z,11.18
2023-05-26T05:27:14.000Z,11.23
2023-05-26T05:28:17.000Z,11.19
2023-05-26T05:29:21.000Z,11.22
2023-05-26T05:30:25.000Z,11.25
2023-05-26T05:31:29.000Z,11.25
2023-05-26T05:32:33.000Z,11.37
2023-05-26T05:33:36.000Z,11.25
2023-05-26T05:34:40.000Z,11.23
2023-05-26T05:35:44.000Z,11.28
2023-05-26T05:36:48.000Z,11.37
2023-05-26T05:37:52.000Z,11.4
2023-05-26T05:38:55.000Z,11.49
2023-05-26T05:39:59.000Z,11.58
2023-05-26T05:41:03.000Z,11.66
2023-05-26T05:42:07.000Z,11.69
2023-05-26T05:43:10.000Z,11.69
2023-05-26T05:44:14.000Z,11.73
2023-05-26T05:45:18.000Z,11.76
2023-05-26T05:46:22.000Z,11.79
2023-05-26T05:47:26.000Z,11.8
2023-05-26T05:48:30.000Z,11.85
2023-05-26T05:49:33.000Z,12.04
2023-05-26T05:50:37.000Z,12.15
2023-05-26T05:51:41.000Z,12.21
2023-05-26T05:52:45.000Z,12.14
2023-05-26T05:53:49.000Z,12.21
2023-05-26T05:54:52.000Z,12.28
2023-05-26T05:55:57.000Z,12.44
2023-05-26T05:57:01.000Z,12.4
2023-05-26T05:58:05.000Z,12.43
2023-05-26T05:59:09.000Z,12.54
2023-05-26T06:00:12.000Z,12.55
2023-05-26T06:01:16.000Z,12.51
2023-05-26T06:02:20.000Z,12.41
2023-05-26T06:03:24.000Z,12.33
2023-05-26T06:04:28.000Z,12.35
2023-05-26T06:05:31.000Z,12.35
2023-05-26T06:06:35.000Z,12.38
2023-05-26T06:07:39.000Z,12.35
2023-05-26T06:08:43.000Z,12.28
2023-05-26T06:09:46.000Z,12.33
2023-05-26T06:10:50.000Z,12.3
2023-05-26T06:11:54.000Z,12.41
2023-05-26T06:12:58.000Z,12.44
2023-05-26T06:14:02.000Z,12.33
2023-05-26T06:15:05.000Z,12.28
2023-05-26T06:16:09.000Z,12.36
2023-05-26T06:17:13.000Z,12.46
2023-05-26T06:18:17.000Z,12.54
2023-05-26T06:19:21.000Z,12.47
2023-05-26T06:20:24.000Z,12.46
2023-05-26T06:21:28.000Z,12.51
2023-05-26T06:22:32.000Z,12.53
2023-05-26T06:23:36.000Z,12.58
2023-05-26T06:24:40.000Z,12.53
2023-05-26T06:25:44.000Z,12.53
2023-05-26T06:26:47.000Z,12.61
2023-05-26T06:27:51.000Z,12.62
2023-05-26T06:28:55.000Z,12.68
2023-05-26T06:29:59.000Z,12.71
2023-05-26T06:31:03.000Z,12.8
2023-05-26T06:32:06.000Z,12.83
2023-05-26T06:33:10.000Z,12.88
2023-05-26T06:34:14.000Z,12.77
2023-05-26T06:35:18.000Z,12.77
2023-05-26T06:36:22.000Z,12.76
2023-05-26T06:37:25.000Z,12.83
2023-05-26T06:38:29.000Z,12.86
2023-05-26T06:39:33.000Z,12.88
2023-05-26T06:40:37.000Z,12.88
2023-05-26T06:41:40.000Z,12.95
2023-05-26T06:42:44.000Z,12.96
2023-05-26T06:43:48.000Z,12.99
2023-05-26T06:44:52.000Z,12.96
2023-05-26T06:45:56.000Z,12.98
2023-05-26T06:46:59.000Z,12.81
2023-05-26T06:48:03.000Z,12.76
2023-05-26T06:49:07.000Z,12.9
2023-05-26T06:50:11.000Z,13.08
2023-05-26T06:51:15.000Z,13.17
2023-05-26T06:52:18.000Z,13.29
2023-05-26T06:53:22.000Z,13.39
2023-05-26T06:54:26.000Z,13.45
2023-05-26T06:55:30.000Z,13.63
2023-05-26T06:56:33.000Z,13.72
2023-05-26T06:57:37.000Z,13.8
2023-05-26T06:58:41.000Z,13.71
2023-05-26T06:59:45.000Z,13.78
2023-05-26T07:00:49.000Z,13.75
2023-05-26T07:01:52.000Z,13.79
2023-05-26T07:02:56.000Z,13.96
2023-05-26T07:04:00.000Z,14.01
2023-05-26T07:05:04.000Z,13.91
2023-05-26T07:06:08.000Z,13.6
2023-05-26T07:07:11.000Z,13.64
2023-05-26T07:08:15.000Z,13.79
2023-05-26T07:09:19.000Z,13.94
2023-05-26T07:10:23.000Z,13.93
2023-05-26T07:11:26.000Z,13.98
2023-05-26T07:12:30.000Z,13.97
2023-05-26T07:13:34.000Z,13.96
2023-05-26T07:14:38.000Z,14.05
2023-05-26T07:15:41.000Z,14.11
2023-05-26T07:16:45.000Z,14.11
2023-05-26T07:17:49.000Z,13.97
2023-05-26T07:18:53.000Z,13.97
2023-05-26T07:19:57.000Z,14.15
2023-05-26T07:21:00.000Z,14.27
2023-05-26T07:22:04.000Z,14.37
2023-05-26T07:23:08.000Z,14.46
2023-05-26T07:24:12.000Z,14.48
2023-05-26T07:25:16.000Z,14.49
2023-05-26T07:26:20.000Z,14.4
2023-05-26T07:27:23.000Z,14.12
2023-05-26T07:28:27.000Z,14.12
2023-05-26T07:29:31.000Z,14.22
2023-05-26T07:30:35.000Z,14.3
2023-05-26T07:31:38.000Z,14.53
2023-05-26T07:32:42.000Z,14.66
2023-05-26T07:33:46.000Z,14.86
2023-05-26T07:34:50.000Z,15.08
2023-05-26T07:35:54.000Z,15.26
2023-05-26T07:36:57.000Z,15.14
2023-05-26T07:38:01.000Z,15.2
2023-05-26T07:39:05.000Z,15.3
2023-05-26T07:40:09.000Z,15.35
2023-05-26T07:41:13.000Z,15.66
2023-05-26T07:42:16.000Z,15.72
2023-05-26T07:43:20.000Z,15.66
2023-05-26T07:44:24.000Z,15.73
2023-05-26T07:45:28.000Z,15.95
2023-05-26T07:46:31.000Z,16.13
2023-05-26T07:47:35.000Z,16.02
2023-05-26T07:48:39.000Z,16.08
2023-05-26T07:49:43.000Z,15.8
2023-05-26T07:50:46.000Z,15.68
2023-05-26T07:51:50.000Z,15.84
2023-05-26T07:52:54.000Z,16.03
2023-05-26T07:53:58.000Z,16.22
2023-05-26T07:55:02.000Z,16.29
2023-05-26T07:56:05.000Z,16.57
2023-05-26T07:57:09.000Z,16.91
2023-05-26T07:58:13.000Z,16.97
2023-05-26T07:59:17.000Z,16.28
2023-05-26T08:00:21.000Z,16.14
2023-05-26T08:01:25.000Z,16.36
2023-05-26T08:02:28.000Z,16.49
2023-05-26T08:03:32.000Z,16.61
2023-05-26T08:04:36.000Z,16.54
2023-05-26T08:05:40.000Z,16.32
2023-05-26T08:06:44.000Z,15.98
2023-05-26T08:07:47.000Z,15.93
2023-05-26T08:08:51.000Z,15.85
2023-05-26T08:09:55.000Z,16.05
2023-05-26T08:10:59.000Z,16.14
2023-05-26T08:12:02.000Z,16.26
2023-05-26T08:13:06.000Z,16.06
2023-05-26T08:14:10.000Z,15.88
2023-05-26T08:15:14.000Z,15.96
2023-05-26T08:16:18.000Z,16.14
2023-05-26T08:17:21.000Z,16.34
2023-05-26T08:18:25.000Z,16.43
2023-05-26T08:19:29.000Z,16.43
2023-05-26T08:20:33.000Z,16.52
2023-05-26T08:21:37.000Z,16.62
2023-05-26T08:22:40.000Z,16.62
2023-05-26T08:23:44.000Z,16.65
2023-05-26T08:24:48.000Z,16.73
2023-05-26T08:25:52.000Z,16.65
2023-05-26T08:26:56.000Z,16.64
2023-05-26T08:27:59.000Z,16.69
2023-05-26T08:29:03.000Z,16.57
2023-05-26T08:30:07.000Z,16.59
2023-05-26T08:31:11.000Z,16.76
2023-05-26T08:32:15.000Z,16.64
2023-05-26T08:33:18.000Z,16.67
2023-05-26T08:34:22.000Z,16.51
2023-05-26T08:35:26.000Z,16.47
2023-05-26T08:36:30.000Z,16.57
2023-05-26T08:37:33.000Z,16.7
2023-05-26T08:38:37.000Z,16.64
2023-05-26T08:39:41.000Z,16.55
2023-05-26T08:40:45.000Z,16.36
2023-05-26T08:41:49.000Z,16.09
2023-05-26T08:42:52.000Z,16.09
2023-05-26T08:43:56.000Z,16.28
2023-05-26T08:45:00.000Z,16.32
2023-05-26T08:46:04.000Z,16.55
2023-05-26T08:47:08.000Z,16.59
2023-05-26T08:48:11.000Z,16.58
2023-05-26T08:49:15.000Z,16.79
2023-05-26T08:50:19.000Z,16.91
2023-05-26T08:51:23.000Z,17.27
2023-05-26T08:52:27.000Z,16.98
2023-05-26T08:53:30.000Z,16.69
2023-05-26T08:54:34.000Z,16.87
2023-05-26T08:55:38.000Z,17.27
2023-05-26T08:56:42.000Z,17.32
2023-05-26T08:57:46.000Z,17.04
2023-05-26T08:58:49.000Z,17.2
2023-05-26T08:59:53.000Z,17.52
2023-05-26T09:00:57.000Z,17.72
2023-05-26T09:02:01.000Z,17.86
2023-05-26T09:03:04.000Z,17.72
2023-05-26T09:04:08.000Z,17.86
2023-05-26T09:05:12.000Z,17.91
2023-05-26T09:06:16.000Z,18.08
2023-05-26T09:07:20.000Z,17.88
2023-05-26T09:08:23.000Z,17.99
2023-05-26T09:09:27.000Z,18.31
2023-05-26T09:10:31.000Z,18.49
2023-05-26T09:11:35.000Z,18.56
2023-05-26T09:12:39.000Z,18.48
2023-05-26T09:13:42.000Z,18.36
2023-05-26T09:14:46.000Z,18.38
2023-05-26T09:15:50.000Z,17.94
2023-05-26T09:16:54.000Z,17.96
2023-05-26T09:17:57.000Z,17.97
2023-05-26T09:19:01.000Z,18.26
2023-05-26T09:20:05.000Z,18.45
2023-05-26T09:21:09.000Z,18.27
2023-05-26T09:22:12.000Z,17.78
2023-05-26T09:23:16.000Z,17.75
2023-05-26T09:24:20.000Z,18.08
2023-05-26T09:25:24.000Z,18.08
2023-05-26T09:26:28.000Z,17.93
2023-05-26T09:27:31.000Z,18.05
2023-05-26T09:28:35.000Z,18.08
2023-05-26T09:29:39.000Z,18.26
2023-05-26T09:30:43.000Z,18.28
2023-05-26T09:31:47.000Z,18.21
2023-05-26T09:32:50.000Z,17.66
2023-05-26T09:33:54.000Z,17.37
2023-05-26T09:34:58.000Z,17.52
2023-05-26T09:36:02.000Z,17.84
2023-05-26T09:37:05.000Z,18.34
2023-05-26T09:38:09.000Z,18.86
2023-05-26T09:39:13.000Z,18.86
2023-05-26T09:40:17.000Z,18.94
2023-05-26T09:41:20.000Z,18.96
2023-05-26T09:42:24.000Z,18.57
2023-05-26T09:43:28.000Z,18.61
2023-05-26T09:44:32.000Z,18.3
2023-05-26T09:45:36.000Z,18.33
2023-05-26T09:46:39.000Z,18.45
2023-05-26T09:47:43.000Z,18.66
2023-05-26T09:48:47.000Z,18.39
2023-05-26T09:49:51.000Z,18.03
2023-05-26T09:50:55.000Z,18.06
2023-05-26T09:51:58.000Z,17.79
2023-05-26T09:53:02.000Z,17.88
2023-05-26T09:54:06.000Z,18.01
2023-05-26T09:55:10.000Z,18.33
2023-05-26T09:56:13.000Z,18.61
2023-05-26T09:57:17.000Z,18.82
2023-05-26T09:58:21.000Z,19.08
2023-05-26T09:59:25.000Z,18.82
2023-05-26T10:00:28.000Z,18.85
2023-05-26T10:01:32.000Z,19.04
2023-05-26T10:02:36.000Z,19.41
2023-05-26T10:03:40.000Z,19.45
2023-05-26T10:04:44.000Z,19.53
2023-05-26T10:05:48.000Z,19.41
2023-05-26T10:06:51.000Z,18.83
2023-05-26T10:07:55.000Z,18.96
2023-05-26T10:08:59.000Z,18.68
2023-05-26T10:10:03.000Z,18.66
2023-05-26T10:11:06.000Z,18.52
2023-05-26T10:12:10.000Z,18.54
2023-05-26T10:13:14.000Z,18.94
2023-05-26T10:14:18.000Z,19.35
2023-05-26T10:15:21.000Z,19.56
2023-05-26T10:16:25.000Z,19.89
2023-05-26T10:17:29.000Z,19.54
2023-05-26T10:18:33.000Z,19.5
2023-05-26T10:19:36.000Z,19.68
2023-05-26T10:20:40.000Z,19.34
2023-05-26T10:21:44.000Z,19.5
2023-05-26T10:22:48.000Z,19.42
2023-05-26T10:23:52.000Z,19.68
2023-05-26T10:24:55.000Z,19.81
2023-05-26T10:25:59.000Z,19.9
2023-05-26T10:27:03.000Z,20.12
2023-05-26T10:28:07.000Z,19.47
2023-05-26T10:29:11.000Z,19.59
2023-05-26T10:30:14.000Z,20.05
2023-05-26T10:31:18.000Z,19.45
2023-05-26T10:32:22.000Z,19.59
2023-05-26T10:33:26.000Z,19.9
2023-05-26T10:34:29.000Z,19.86
2023-05-26T10:35:33.000Z,20.05
2023-05-26T10:36:37.000Z,20.17
2023-05-26T10:37:41.000Z,20.37
2023-05-26T10:38:45.000Z,20.37
2023-05-26T10:39:48.000Z,20.3
2023-05-26T10:40:52.000Z,20.14
2023-05-26T10:41:56.000Z,20.17
2023-05-26T10:43:00.000Z,20.25
2023-05-26T10:44:04.000Z,20.12
2023-05-26T10:45:07.000Z,19.79
2023-05-26T10:46:11.000Z,20.02
2023-05-26T10:47:15.000Z,19.9
2023-05-26T10:48:19.000Z,19.49
2023-05-26T10:49:22.000Z,19.26
2023-05-26T10:50:26.000Z,19.53
2023-05-26T10:51:30.000Z,19.63
2023-05-26T10:52:34.000Z,19.7
2023-05-26T10:53:37.000Z,20.09
2023-05-26T10:54:41.000Z,20.42
2023-05-26T10:55:45.000Z,20.39
2023-05-26T10:56:49.000Z,20.41
2023-05-26T10:57:52.000Z,20.26
2023-05-26T10:58:56.000Z,20.39
2023-05-26T11:00:00.000Z,20.49
2023-05-26T11:01:04.000Z,20.15
2023-05-26T11:02:09.000Z,19.54
2023-05-26T11:03:13.000Z,19.24
2023-05-26T11:04:17.000Z,19.38
2023-05-26T11:05:26.000Z,19.87
2023-05-26T11:06:29.000Z,19.92
2023-05-26T11:07:33.000Z,20.0
2023-05-26T11:08:37.000Z,20.26
2023-05-26T11:09:41.000Z,20.33
2023-05-26T11:10:45.000Z,20.48
2023-05-26T11:11:49.000Z,20.64
2023-05-26T11:12:53.000Z,20.75
2023-05-26T11:13:56.000Z,20.5
2023-05-26T11:15:00.000Z,20.48
2023-05-26T11:16:04.000Z,20.71
2023-05-26T11:17:08.000Z,20.82
2023-05-26T11:18:12.000Z,20.65
2023-05-26T11:19:15.000Z,20.82
2023-05-26T11:20:19.000Z,19.67
2023-05-26T11:21:23.000Z,19.72
2023-05-26T11:22:27.000Z,20.22
2023-05-26T11:23:30.000Z,20.58
2023-05-26T11:24:34.000Z,20.89
2023-05-26T11:25:38.000Z,21.0
2023-05-26T11:26:42.000Z,20.88
2023-05-26T11:27:46.000Z,21.05
2023-05-26T11:28:49.000Z,20.9
2023-05-26T11:29:53.000Z,20.93
2023-05-26T11:30:57.000Z,21.08
2023-05-26T11:32:01.000Z,21.25
2023-05-26T11:33:04.000Z,21.1
2023-05-26T11:34:08.000Z,20.89
2023-05-26T11:35:12.000Z,20.5
2023-05-26T11:36:16.000Z,20.12
2023-05-26T11:37:20.000Z,20.58
2023-05-26T11:38:23.000Z,20.85
2023-05-26T11:39:27.000Z,20.86
2023-05-26T11:40:31.000Z,20.92
2023-05-26T11:41:35.000Z,21.07
2023-05-26T11:42:39.000Z,21.37
2023-05-26T11:43:42.000Z,21.5
2023-05-26T11:44:46.000Z,21.41
2023-05-26T11:45:50.000Z,20.89
2023-05-26T11:46:54.000Z,20.65
2023-05-26T11:47:57.000Z,20.79
2023-05-26T11:49:01.000Z,20.93
2023-05-26T11:50:05.000Z,20.89
2023-05-26T11:51:09.000Z,20.44
2023-05-26T11:52:13.000Z,20.68
2023-05-26T11:53:16.000Z,20.19
2023-05-26T11:54:20.000Z,20.53
2023-05-26T11:55:24.000Z,20.32
2023-05-26T11:56:28.000Z,20.74
2023-05-26T11:57:32.000Z,20.88
2023-05-26T11:58:35.000Z,20.95
2023-05-26T11:59:39.000Z,21.14
2023-05-26T12:00:43.000Z,21.47
2023-05-26T12:01:47.000Z,21.45
2023-05-26T12:02:51.000Z,21.45
2023-05-26T12:03:54.000Z,21.3
2023-05-26T12:04:58.000Z,21.37
2023-05-26T12:06:02.000Z,21.53
2023-05-26T12:07:06.000Z,21.45
2023-05-26T12:08:10.000Z,21.51
2023-05-26T12:09:13.000Z,21.53
2023-05-26T12:10:17.000Z,21.22
2023-05-26T12:11:21.000Z,21.28
2023-05-26T12:12:25.000Z,21.14
2023-05-26T12:13:29.000Z,21.07
2023-05-26T12:14:32.000Z,20.9
2023-05-26T12:15:36.000Z,20.71
2023-05-26T12:16:40.000Z,20.79
2023-05-26T12:17:44.000Z,20.97
2023-05-26T12:18:48.000Z,21.16
2023-05-26T12:19:51.000Z,21.04
2023-05-26T12:21:00.000Z,21.1
2023-05-26T12:22:04.000Z,21.2
2023-05-26T12:23:08.000Z,21.51
2023-05-26T12:24:12.000Z,21.71
2023-05-26T12:25:15.000Z,21.77
2023-05-26T12:26:19.000Z,21.77
2023-05-26T12:27:23.000Z,21.75
2023-05-26T12:28:27.000Z,21.74
2023-05-26T12:29:30.000Z,21.25
2023-05-26T12:29:33.000Z,21.44
2023-05-26T12:30:34.000Z,21.11
2023-05-26T12:31:38.000Z,21.34
2023-05-26T12:32:42.000Z,21.51
2023-05-26T12:33:45.000Z,21.41
2023-05-26T12:34:49.000Z,20.89
2023-05-26T12:35:53.000Z,20.68
2023-05-26T12:36:57.000Z,20.71
2023-05-26T12:38:01.000Z,20.56
2023-05-26T12:39:05.000Z,20.37
2023-05-26T12:40:08.000Z,20.15
2023-05-26T12:41:12.000Z,20.48
2023-05-26T12:42:16.000Z,20.86
2023-05-26T12:43:20.000Z,21.16
2023-05-26T12:44:24.000Z,21.18
2023-05-26T12:45:27.000Z,21.35
2023-05-26T12:46:31.000Z,20.73
2023-05-26T12:47:35.000Z,20.56
2023-05-26T12:48:39.000Z,20.83
2023-05-26T12:49:42.000Z,21.19
2023-05-26T12:50:46.000Z,21.53
2023-05-26T13:18:26.000Z,21.59
2023-05-26T13:19:34.000Z,21.73
2023-05-26T13:20:38.000Z,21.2
2023-05-26T13:21:47.000Z,20.41
2023-05-26T13:22:56.000Z,20.88
2023-05-26T13:24:00.000Z,21.07
2023-05-26T13:25:04.000Z,21.43
2023-05-26T13:26:08.000Z,21.77
2023-05-26T13:27:11.000Z,21.93
2023-05-26T13:28:15.000Z,21.66
2023-05-26T13:29:19.000Z,21.48
2023-05-26T13:30:23.000Z,21.55
2023-05-26T13:31:27.000Z,21.23
2023-05-26T13:32:30.000Z,21.16
2023-05-26T13:33:34.000Z,21.16
2023-05-26T13:34:38.000Z,21.4
2023-05-26T13:35:42.000Z,21.37
2023-05-26T13:36:46.000Z,21.47
2023-05-26T13:37:49.000Z,20.95
2023-05-26T13:38:53.000Z,20.89
2023-05-26T13:39:57.000Z,20.82
2023-05-26T13:41:01.000Z,21.11
2023-05-26T13:42:04.000Z,21.26
2023-05-26T13:43:08.000Z,21.03
2023-05-26T13:44:12.000Z,20.86
2023-05-26T13:45:16.000Z,21.04
2023-05-26T13:46:20.000Z,21.18
2023-05-26T13:47:23.000Z,21.26
2023-05-26T13:48:27.000Z,21.35
2023-05-26T13:49:31.000Z,21.3
2023-05-26T13:50:35.000Z,21.14
2023-05-26T13:51:39.000Z,21.3
2023-05-26T13:52:42.000Z,21.37
2023-05-26T13:53:46.000Z,21.51
2023-05-26T13:54:50.000Z,21.4
2023-05-26T13:55:54.000Z,21.34
2023-05-26T13:56:58.000Z,21.34
2023-05-26T13:58:01.000Z,21.51
2023-05-26T13:59:05.000Z,21.37
2023-05-26T14:00:09.000Z,21.41
2023-05-26T14:01:13.000Z,21.53
2023-05-26T14:02:16.000Z,21.58
2023-05-26T14:03:20.000Z,21.63
2023-05-26T14:04:24.000Z,21.55
2023-05-26T14:05:28.000Z,21.48
2023-05-26T14:06:31.000Z,21.5
2023-05-26T14:07:35.000Z,21.51
2023-05-26T14:08:39.000Z,21.58
2023-05-26T14:09:43.000Z,21.55
2023-05-26T14:10:47.000Z,21.55
2023-05-26T14:11:50.000Z,21.47
2023-05-26T14:12:54.000Z,21.59
2023-05-26T14:13:58.000Z,21.78
2023-05-26T14:15:02.000Z,21.91
2023-05-26T14:16:05.000Z,21.82
2023-05-26T14:17:09.000Z,21.8
2023-05-26T14:18:13.000Z,21.82